Time,TemperatureF,DewpointF,PressureIn,WindDirection,WindDirectionDegrees,WindSpeedMPH,WindSpeedGustMPH,Humidity,HourlyPrecipIn,Conditions,Clouds,dailyrainin,SolarRadiationWatts/m^2,SoftwareType,DateUTC
2013-08-16 01:11:00,51.0,24.0,-100.00,WNW,289,0.0,2.0,34,0.00,,,0.00,0.000000,,2013-08-16 07:11:00,
2013-08-16 01:21:00,51.0,24.0,-100.00,WNW,289,0.0,2.0,34,0.00,,,0.00,0.000000,,2013-08-16 07:21:00,
2013-08-16 01:31:00,51.0,24.0,-100.00,WNW,289,0.0,2.0,34,0.00,,,0.00,0.000000,,2013-08-16 07:31:00,
2013-08-16 02:11:00,48.0,24.0,-100.00,SSW,198,0.0,2.0,38,0.00,,,0.00,0.000000,,2013-08-16 08:11:00,
2013-08-16 02:21:00,48.0,24.0,-100.00,SSW,198,0.0,2.0,38,0.00,,,0.00,0.000000,,2013-08-16 08:21:00,
2013-08-16 02:31:00,48.0,24.0,-100.00,SSW,198,0.0,2.0,38,0.00,,,0.00,0.000000,,2013-08-16 08:31:00,
2013-08-16 03:11:00,44.0,22.0,-100.00,SSE,155,0.0,2.0,42,0.00,,,0.00,0.000000,,2013-08-16 09:11:00,
2013-08-16 03:21:00,44.0,22.0,-100.00,SSE,155,0.0,2.0,42,0.00,,,0.00,0.000000,,2013-08-16 09:21:00,
2013-08-16 03:33:00,44.0,22.0,-100.00,SSE,155,0.0,2.0,42,0.00,,,0.00,0.000000,,2013-08-16 09:33:00,
2013-08-16 04:13:00,41.0,22.0,-100.00,South,186,0.0,2.0,46,0.00,,,0.00,0.000000,,2013-08-16 10:13:00,
2013-08-16 04:23:00,41.0,22.0,-100.00,South,186,0.0,2.0,46,0.00,,,0.00,0.000000,,2013-08-16 10:23:00,
2013-08-16 04:33:00,41.0,22.0,-100.00,South,186,0.0,2.0,46,0.00,,,0.00,0.000000,,2013-08-16 10:33:00,
2013-08-16 05:12:00,40.0,22.0,-100.00,SW,232,0.0,2.0,49,0.00,,,-99.99,0.000000,,2013-08-16 11:12:00,
2013-08-16 05:21:00,40.0,22.0,-100.00,SW,232,0.0,2.0,49,0.00,,,-99.99,0.000000,,2013-08-16 11:21:00,
2013-08-16 05:32:00,40.0,22.0,-100.00,SW,232,0.0,2.0,49,0.00,,,-99.99,0.000000,,2013-08-16 11:32:00,
2013-08-16 06:12:00,37.0,21.0,-100.00,SE,132,0.0,0.0,53,0.00,,,0.00,0.000000,,2013-08-16 12:12:00,
2013-08-16 06:21:00,37.0,21.0,-100.00,SE,132,0.0,0.0,53,0.00,,,0.00,0.000000,,2013-08-16 12:21:00,
2013-08-16 06:31:00,37.0,21.0,-100.00,SE,132,0.0,0.0,53,0.00,,,0.00,0.000000,,2013-08-16 12:31:00,
2013-08-16 07:11:00,36.0,22.0,-100.00,South,188,0.0,2.0,56,0.00,,,0.00,0.000000,,2013-08-16 13:11:00,
2013-08-16 07:21:00,36.0,22.0,-100.00,South,188,0.0,2.0,56,0.00,,,0.00,0.000000,,2013-08-16 13:21:00,
2013-08-16 07:32:00,36.0,22.0,-100.00,South,188,0.0,2.0,56,0.00,,,0.00,0.000000,,2013-08-16 13:32:00,
2013-08-16 08:11:00,37.0,23.0,-100.00,SSW,202,0.0,2.0,57,0.00,,,0.00,20.000000,,2013-08-16 14:11:00,
2013-08-16 08:22:00,37.0,23.0,-100.00,SSW,202,0.0,2.0,57,0.00,,,0.00,20.000000,,2013-08-16 14:22:00,
2013-08-16 08:31:00,37.0,23.0,-100.00,SSW,202,0.0,2.0,57,0.00,,,0.00,20.000000,,2013-08-16 14:31:00,
2013-08-16 09:12:00,49.0,30.0,-100.00,SSE,164,0.0,1.0,47,0.00,,,0.00,154.000000,,2013-08-16 15:12:00,
2013-08-16 09:22:00,49.0,30.0,-100.00,SSE,164,0.0,1.0,47,0.00,,,0.00,154.000000,,2013-08-16 15:22:00,
2013-08-16 09:33:00,49.0,30.0,-100.00,SSE,164,0.0,1.0,47,0.00,,,0.00,154.000000,,2013-08-16 15:33:00,
2013-08-16 10:13:00,59.0,30.0,-100.00,WSW,239,2.0,3.0,33,0.00,,,0.00,331.000000,,2013-08-16 16:13:00,
2013-08-16 10:23:00,59.0,30.0,-100.00,WSW,239,2.0,3.0,33,0.00,,,0.00,331.000000,,2013-08-16 16:23:00,
2013-08-16 10:34:00,59.0,30.0,-100.00,WSW,239,2.0,3.0,33,0.00,,,0.00,331.000000,,2013-08-16 16:34:00,
2013-08-16 11:12:00,69.0,31.0,-100.00,SW,222,2.0,3.0,24,0.00,,,0.00,586.000000,,2013-08-16 17:12:00,
2013-08-16 11:28:00,69.0,31.0,-100.00,SW,222,2.0,3.0,24,0.00,,,0.00,586.000000,,2013-08-16 17:28:00,
2013-08-16 11:34:00,69.0,31.0,-100.00,SW,222,2.0,3.0,24,0.00,,,0.00,586.000000,,2013-08-16 17:34:00,
2013-08-16 12:15:00,79.0,29.0,-100.00,South,187,2.0,4.0,16,0.00,,,0.00,766.000000,,2013-08-16 18:15:00,
2013-08-16 12:28:00,79.0,29.0,-100.00,South,187,2.0,4.0,16,0.00,,,0.00,766.000000,,2013-08-16 18:28:00,
2013-08-16 13:14:00,88.0,25.0,-100.00,SW,215,5.0,11.0,10,0.00,,,0.00,901.000000,,2013-08-16 19:14:00,
2013-08-16 13:25:00,88.0,25.0,-100.00,SW,215,5.0,11.0,10,0.00,,,0.00,901.000000,,2013-08-16 19:25:00,
2013-08-16 13:36:00,88.0,25.0,-100.00,SW,215,5.0,11.0,10,0.00,,,0.00,901.000000,,2013-08-16 19:36:00,
2013-08-16 14:23:00,91.0,22.0,-100.00,SSW,202,6.0,17.0,8,0.00,,,0.00,963.000000,,2013-08-16 20:23:00,
2013-08-16 14:38:00,91.0,22.0,-100.00,SSW,202,6.0,17.0,8,0.00,,,0.00,963.000000,,2013-08-16 20:38:00,
2013-08-16 14:39:00,-999.0,-99.9,-100.00,SSW,212,6.0,14.0,-999,0.00,,,0.00,958.000000,,2013-08-16 20:39:00,
2013-08-16 15:25:00,92.0,22.0,-100.00,SSW,212,6.0,14.0,8,0.00,,,0.00,958.000000,,2013-08-16 21:25:00,
2013-08-16 16:13:00,92.0,16.0,-100.00,SW,215,5.0,18.0,6,0.00,,,0.00,868.000000,,2013-08-16 22:13:00,
2013-08-16 16:24:00,92.0,16.0,-100.00,SW,215,5.0,18.0,6,0.00,,,0.00,868.000000,,2013-08-16 22:24:00,
2013-08-16 16:33:00,92.0,16.0,-100.00,SW,215,5.0,18.0,6,0.00,,,0.00,868.000000,,2013-08-16 22:33:00,
2013-08-16 17:12:00,90.0,18.0,-100.00,SW,230,6.0,18.0,7,0.00,,,0.00,780.000000,,2013-08-16 23:12:00,
2013-08-16 17:23:00,90.0,18.0,-100.00,SW,230,6.0,18.0,7,0.00,,,0.00,780.000000,,2013-08-16 23:23:00,
2013-08-16 17:32:00,90.0,18.0,-100.00,SW,230,6.0,18.0,7,0.00,,,0.00,780.000000,,2013-08-16 23:32:00,
2013-08-16 18:11:00,88.0,16.0,-100.00,SW,223,5.0,15.0,7,0.00,,,0.00,619.000000,,2013-08-17 00:11:00,
2013-08-16 18:21:00,88.0,16.0,-100.00,SW,223,5.0,15.0,7,0.00,,,0.00,619.000000,,2013-08-17 00:21:00,
2013-08-16 18:32:00,88.0,16.0,-100.00,SW,223,5.0,15.0,7,0.00,,,0.00,619.000000,,2013-08-17 00:32:00,
2013-08-16 19:11:00,85.0,14.0,-100.00,SW,232,6.0,17.0,7,0.00,,,0.00,51.000000,,2013-08-17 01:11:00,
2013-08-16 19:21:00,85.0,14.0,-100.00,SW,232,6.0,17.0,7,0.00,,,0.00,51.000000,,2013-08-17 01:21:00,
2013-08-16 19:32:00,85.0,14.0,-100.00,SW,232,6.0,17.0,7,0.00,,,0.00,51.000000,,2013-08-17 01:32:00,
2013-08-16 20:11:00,81.0,19.0,-100.00,SSW,212,4.0,10.0,10,0.00,,,0.00,41.000000,,2013-08-17 02:11:00,
2013-08-16 20:21:00,81.0,19.0,-100.00,SSW,212,4.0,10.0,10,0.00,,,0.00,41.000000,,2013-08-17 02:21:00,
2013-08-16 20:31:00,81.0,19.0,-100.00,SSW,212,4.0,10.0,10,0.00,,,0.00,41.000000,,2013-08-17 02:31:00,
2013-08-16 21:11:00,73.0,24.0,-100.00,SSW,193,3.0,9.0,16,0.00,,,0.00,4.000000,,2013-08-17 03:11:00,
2013-08-16 21:21:00,73.0,24.0,-100.00,SSW,193,3.0,9.0,16,0.00,,,0.00,4.000000,,2013-08-17 03:21:00,
2013-08-16 21:34:00,73.0,24.0,-100.00,SSW,193,3.0,9.0,16,0.00,,,0.00,4.000000,,2013-08-17 03:34:00,
2013-08-16 22:12:00,68.0,23.0,-100.00,SW,223,2.0,7.0,18,0.00,,,0.00,0.000000,,2013-08-17 04:12:00,
2013-08-16 22:23:00,68.0,23.0,-100.00,SW,223,2.0,7.0,18,0.00,,,0.00,0.000000,,2013-08-17 04:23:00,
2013-08-16 22:32:00,68.0,23.0,-100.00,SW,223,2.0,7.0,18,0.00,,,0.00,0.000000,,2013-08-17 04:32:00,
2013-08-16 23:12:00,61.0,22.0,-100.00,SSE,150,2.0,5.0,22,0.00,,,0.00,0.000000,,2013-08-17 05:12:00,
2013-08-16 23:22:00,61.0,22.0,-100.00,SSE,150,2.0,5.0,22,0.00,,,0.00,0.000000,,2013-08-17 05:22:00,
2013-08-16 23:32:00,61.0,22.0,-100.00,SSE,150,2.0,5.0,22,0.00,,,0.00,0.000000,,2013-08-17 05:32:00,